Time;durP1;ratioP1;P1;durP2;ratioP2;P2;SDS_P1;SDS_P2;PMS_P1;PMS_P2;Temp;Humidity;BMP_temperature;BMP_pressure;BME280_temperature;BME280_humidity;BME280_pressure;Samples;Min_cycle;Max_cycle;Signal;HPM_P1;HPM_P2
2022/09/26 00:00:46;;;;;;;13.43;4.78;;;8.10;97.90;;;;;;5003270;28;20025;-72
2022/09/26 00:03:11;;;;;;;13.88;5.35;;;8.00;97.90;;;;;;5008149;28;20375;-72
2022/09/26 00:05:38;;;;;;;11.57;4.63;;;8.00;97.90;;;;;;5010551;28;20030;-72
2022/09/26 00:08:06;;;;;;;11.77;4.72;;;7.90;97.90;;;;;;5006888;28;20116;-72
2022/09/26 00:10:32;;;;;;;12.68;5.05;;;7.90;97.90;;;;;;5012117;28;20513;-72
2022/09/26 00:12:59;;;;;;;11.50;5.10;;;7.90;98.00;;;;;;5009237;28;20030;-72
2022/09/26 00:15:24;;;;;;;12.80;5.07;;;7.90;98.00;;;;;;5008204;28;20112;-72
2022/09/26 00:17:50;;;;;;;11.65;4.68;;;8.00;98.00;;;;;;5004146;28;20312;-72
2022/09/26 00:20:15;;;;;;;11.45;4.93;;;7.90;97.90;;;;;;5005854;28;20396;-72
2022/09/26 00:22:41;;;;;;;11.77;5.00;;;7.90;98.00;;;;;;5009274;28;20416;-74
2022/09/26 00:25:07;;;;;;;10.98;4.50;;;7.90;98.00;;;;;;5007261;28;20045;-72
2022/09/26 00:27:32;;;;;;;11.73;4.88;;;7.90;98.00;;;;;;5007947;28;20034;-72
2022/09/26 00:29:58;;;;;;;8.85;4.70;;;8.00;98.00;;;;;;5010170;28;20041;-72
2022/09/26 00:32:23;;;;;;;10.63;4.45;;;8.00;98.10;;;;;;5006692;28;20036;-72
2022/09/26 00:34:49;;;;;;;12.18;4.93;;;8.00;98.10;;;;;;5010076;28;20064;-72
2022/09/26 00:37:15;;;;;;;13.15;4.93;;;8.00;98.10;;;;;;5011562;28;20120;-72
2022/09/26 00:39:41;;;;;;;11.90;5.55;;;8.10;98.20;;;;;;5003615;28;20426;-73
2022/09/26 00:42:08;;;;;;;9.98;5.00;;;8.10;98.10;;;;;;5007904;28;20112;-72
2022/09/26 00:44:53;;;;;;;14.00;5.07;;;8.10;98.10;;;;;;5010595;28;20451;-72
2022/09/26 00:47:49;;;;;;;10.43;4.47;;;8.10;98.10;;;;;;5006507;28;20149;-72
2022/09/26 00:50:25;;;;;;;9.32;4.35;;;8.10;98.10;;;;;;5012378;28;20030;-72
2022/09/26 00:52:59;;;;;;;15.98;5.03;;;8.20;98.10;;;;;;5004616;28;20104;-73
2022/09/26 00:55:29;;;;;;;13.60;5.13;;;8.20;98.10;;;;;;5014762;28;20034;-72
2022/09/26 00:58:21;;;;;;;12.52;5.07;;;8.20;98.10;;;;;;5007096;28;20050;-72
2022/09/26 01:00:48;;;;;;;17.45;5.70;;;8.20;98.10;;;;;;5008054;28;20037;-73
2022/09/26 01:03:15;;;;;;;12.00;4.82;;;8.20;98.10;;;;;;5008965;28;20117;-72
2022/09/26 01:05:42;;;;;;;12.73;5.13;;;8.20;98.10;;;;;;5004546;28;20081;-72
2022/09/26 01:08:08;;;;;;;15.43;5.15;;;8.20;98.10;;;;;;5006335;28;20057;-72
2022/09/26 01:10:37;;;;;;;9.55;4.80;;;8.10;98.10;;;;;;5005195;28;20485;-72
2022/09/26 01:13:03;;;;;;;11.02;4.45;;;8.20;98.10;;;;;;5004811;28;20434;-72
2022/09/26 01:15:29;;;;;;;18.15;4.78;;;8.10;98.10;;;;;;5005786;28;20037;-72
2022/09/26 01:17:56;;;;;;;9.98;4.28;;;8.20;98.10;;;;;;5021680;28;20330;-72
2022/09/26 01:20:35;;;;;;;13.88;4.97;;;8.10;98.20;;;;;;5015243;28;20041;-72
2022/09/26 01:23:19;;;;;;;9.20;4.45;;;8.10;98.10;;;;;;5009776;28;20030;-72
2022/09/26 01:26:09;;;;;;;10.63;4.60;;;8.20;98.20;;;;;;5003269;28;20022;-72
2022/09/26 01:29:09;;;;;;;9.52;4.40;;;8.20;98.20;;;;;;5002966;28;20533;-72
2022/09/26 01:35:15;;;;;;;8.25;4.18;;;8.20;98.10;;;;;;5008533;28;20516;-72
2022/09/26 01:37:54;;;;;;;;;;;8.20;98.30;;;;;;5004098;28;20419;-73
2022/09/26 01:40:50;;;;;;;10.70;4.32;;;8.30;98.20;;;;;;5008333;28;19910;-72
2022/09/26 01:43:45;;;;;;;9.77;4.32;;;8.30;98.20;;;;;;4996821;28;20046;-72
2022/09/26 01:46:27;;;;;;;10.18;4.22;;;8.30;98.20;;;;;;4973449;28;20093;-73
2022/09/26 01:49:16;;;;;;;11.48;4.22;;;8.40;98.10;;;;;;5007849;28;20101;-72
2022/09/26 01:51:55;;;;;;;11.18;4.15;;;8.40;98.20;;;;;;5008133;28;20461;-74
2022/09/26 01:54:26;;;;;;;11.15;5.20;;;8.40;98.20;;;;;;5000605;28;20026;-72
2022/09/26 01:56:56;;;;;;;7.20;4.65;;;8.40;98.20;;;;;;5006017;28;20056;-73
2022/09/26 01:59:28;;;;;;;19.48;5.07;;;8.50;98.10;;;;;;5006741;28;20046;-72
2022/09/26 02:01:58;;;;;;;9.43;4.93;;;8.40;98.10;;;;;;5002445;28;20030;-73
2022/09/26 02:04:31;;;;;;;12.13;5.47;;;8.40;98.10;;;;;;5003806;28;20037;-72
2022/09/26 02:07:20;;;;;;;9.23;4.32;;;8.50;98.10;;;;;;5006610;28;20356;-72
2022/09/26 02:09:58;;;;;;;9.77;4.60;;;8.40;98.10;;;;;;5003074;28;20033;-72
2022/09/26 02:12:31;;;;;;;8.23;4.20;;;8.40;98.10;;;;;;5002216;28;20033;-72
2022/09/26 02:15:00;;;;;;;12.10;4.28;;;8.50;98.10;;;;;;5008347;28;20030;-72
2022/09/26 02:17:31;;;;;;;12.35;4.43;;;8.50;98.10;;;;;;5006733;28;20057;-72
2022/09/26 02:20:09;;;;;;;9.63;3.78;;;8.50;98.10;;;;;;5004822;28;20114;-72
2022/09/26 02:22:34;;;;;;;11.43;4.35;;;8.50;98.10;;;;;;5013201;28;20473;-72
2022/09/26 02:25:01;;;;;;;12.43;4.70;;;8.50;98.10;;;;;;5006659;28;20038;-72
2022/09/26 02:27:27;;;;;;;11.90;4.88;;;8.50;98.10;;;;;;5012930;28;20030;-73
2022/09/26 02:29:53;;;;;;;8.25;4.22;;;8.60;98.00;;;;;;5005652;28;20034;-72
2022/09/26 02:32:24;;;;;;;9.82;5.03;;;8.50;98.00;;;;;;5007844;28;20038;-72
2022/09/26 02:34:50;;;;;;;9.35;4.80;;;8.60;98.00;;;;;;5005520;28;20041;-72
2022/09/26 02:37:19;;;;;;;7.20;4.30;;;8.60;97.90;;;;;;5002931;28;20057;-72
2022/09/26 02:39:46;;;;;;;13.95;4.43;;;8.60;97.90;;;;;;5011706;28;20042;-72
2022/09/26 02:42:20;;;;;;;9.57;3.97;;;8.60;97.90;;;;;;5007257;28;20386;-72
2022/09/26 02:44:57;;;;;;;6.78;4.07;;;8.50;97.90;;;;;;5008033;28;20394;-72
2022/09/26 02:47:56;;;;;;;9.02;4.47;;;8.50;97.90;;;;;;5006692;28;20094;-72
2022/09/26 02:50:46;;;;;;;11.48;4.35;;;8.50;97.90;;;;;;5004448;28;20129;-72
2022/09/26 02:53:40;;;;;;;9.40;3.90;;;8.50;97.90;;;;;;5001644;28;20061;-73
2022/09/26 02:56:19;;;;;;;10.70;4.25;;;8.60;97.90;;;;;;5001883;28;20133;-74
2022/09/26 02:59:15;;;;;;;14.48;4.25;;;8.60;98.00;;;;;;5001659;28;20034;-72
2022/09/26 03:01:53;;;;;;;8.40;4.03;;;8.60;97.90;;;;;;5000721;28;20029;-72
2022/09/26 03:04:31;;;;;;;10.85;4.43;;;8.60;97.90;;;;;;5005625;28;20022;-72
2022/09/26 03:07:01;;;;;;;9.15;4.00;;;8.60;97.90;;;;;;5006877;28;20021;-72
2022/09/26 03:09:29;;;;;;;7.75;4.32;;;8.60;97.90;;;;;;5004734;28;20046;-73
2022/09/26 03:11:59;;;;;;;13.60;4.10;;;8.60;97.90;;;;;;5005982;28;20057;-73
2022/09/26 03:14:26;;;;;;;9.68;3.97;;;8.70;97.90;;;;;;5007570;28;20037;-72
2022/09/26 03:16:52;;;;;;;8.13;3.70;;;8.70;97.90;;;;;;5007878;28;20033;-72
2022/09/26 03:19:34;;;;;;;12.70;3.95;;;8.80;97.80;;;;;;5006222;28;20084;-72
2022/09/26 03:22:00;;;;;;;8.60;4.28;;;8.80;97.80;;;;;;5004923;28;20022;-72
2022/09/26 03:24:26;;;;;;;12.68;4.10;;;8.80;97.80;;;;;;5002811;28;20200;-72
2022/09/26 03:26:52;;;;;;;7.13;3.85;;;8.90;97.70;;;;;;5007724;28;20108;-72
2022/09/26 03:29:18;;;;;;;9.43;4.10;;;8.90;97.60;;;;;;5012490;28;20532;-72
2022/09/26 03:31:44;;;;;;;8.82;4.07;;;8.90;97.70;;;;;;5002434;28;20408;-73
2022/09/26 03:34:10;;;;;;;15.55;3.83;;;8.90;97.60;;;;;;5002007;28;20040;-72
2022/09/26 03:36:36;;;;;;;8.52;4.03;;;8.90;97.50;;;;;;5003338;28;20037;-72
2022/09/26 03:39:02;;;;;;;7.57;3.63;;;8.90;97.40;;;;;;5005446;28;20042;-72
2022/09/26 03:41:27;;;;;;;10.90;3.78;;;8.90;97.40;;;;;;5012107;28;20030;-73
2022/09/26 03:43:55;;;;;;;7.57;4.47;;;8.90;97.30;;;;;;5003620;28;20327;-72
2022/09/26 03:46:21;;;;;;;8.05;3.47;;;9.00;97.30;;;;;;5005510;28;20037;-72
2022/09/26 03:48:49;;;;;;;9.93;4.05;;;8.90;97.20;;;;;;5004449;28;20116;-72
2022/09/26 03:51:15;;;;;;;8.07;3.40;;;9.00;97.20;;;;;;5004348;28;20104;-72
2022/09/26 03:53:43;;;;;;;12.48;4.10;;;8.90;97.10;;;;;;5004416;28;20446;-72
2022/09/26 03:56:11;;;;;;;5.13;3.28;;;8.90;97.10;;;;;;5001551;28;20563;-72
2022/09/26 03:58:37;;;;;;;8.30;3.78;;;8.90;97.10;;;;;;5012422;28;20031;-72
2022/09/26 04:01:08;;;;;;;6.15;3.55;;;9.00;97.00;;;;;;5009037;28;20053;-73
2022/09/26 04:03:35;;;;;;;6.32;3.60;;;9.00;97.00;;;;;;5003763;28;20037;-73
2022/09/26 04:06:02;;;;;;;5.72;3.35;;;9.00;97.00;;;;;;5000350;28;20208;-72
2022/09/26 04:08:27;;;;;;;8.50;3.40;;;9.00;97.00;;;;;;5001031;28;20065;-73
2022/09/26 04:11:00;;;;;;;13.38;4.43;;;9.10;97.00;;;;;;5001659;28;20034;-72
2022/09/26 04:13:26;;;;;;;6.75;3.42;;;9.00;97.00;;;;;;4998030;28;20041;-73
2022/09/26 04:15:56;;;;;;;11.77;3.40;;;9.00;96.90;;;;;;5006317;28;20030;-72
2022/09/26 04:18:21;;;;;;;7.10;3.42;;;9.00;96.90;;;;;;5012754;28;20037;-72
2022/09/26 04:20:47;;;;;;;5.50;3.05;;;9.00;96.80;;;;;;5002683;28;20061;-72
2022/09/26 04:23:12;;;;;;;6.20;3.38;;;9.00;96.90;;;;;;5003412;28;20111;-72
2022/09/26 04:25:38;;;;;;;7.97;3.58;;;8.90;96.90;;;;;;5005797;28;20044;-72
2022/09/26 04:28:03;;;;;;;8.45;3.10;;;9.00;96.90;;;;;;5002129;28;20034;-72
2022/09/26 04:30:29;;;;;;;9.18;3.00;;;9.00;96.90;;;;;;5003382;28;20030;-70
2022/09/26 04:32:55;;;;;;;8.27;2.90;;;9.00;96.90;;;;;;5005759;28;20090;-72
2022/09/26 04:35:20;;;;;;;6.60;3.65;;;9.00;96.80;;;;;;4996437;28;20046;-72
2022/09/26 04:37:46;;;;;;;6.00;3.08;;;9.00;96.70;;;;;;4994019;28;20021;-73
2022/09/26 04:40:12;;;;;;;8.38;3.13;;;9.00;96.80;;;;;;4992628;28;20110;-72
2022/09/26 04:42:37;;;;;;;10.00;3.50;;;8.90;96.70;;;;;;5006256;28;20350;-71
2022/09/26 04:45:03;;;;;;;5.38;3.03;;;8.90;96.70;;;;;;4998419;28;20026;-72
2022/09/26 04:47:29;;;;;;;8.27;3.20;;;8.90;96.70;;;;;;5004986;28;20117;-72
2022/09/26 04:49:55;;;;;;;7.22;3.17;;;8.90;96.80;;;;;;5006140;28;20132;-72
2022/09/26 04:52:20;;;;;;;7.40;3.08;;;8.90;96.80;;;;;;5005199;28;20041;-71
2022/09/26 04:54:46;;;;;;;6.85;3.03;;;8.90;96.80;;;;;;5002187;28;20046;-72
2022/09/26 04:57:13;;;;;;;6.25;3.33;;;9.00;96.70;;;;;;5009666;28;20056;-71
2022/09/26 04:59:38;;;;;;;7.95;3.00;;;9.00;96.60;;;;;;5008094;28;20126;-72
2022/09/26 05:02:07;;;;;;;6.75;2.90;;;9.00;96.60;;;;;;5006931;28;20078;-75
2022/09/26 05:04:33;;;;;;;6.95;2.60;;;9.00;96.60;;;;;;5006860;28;20411;-72
2022/09/26 05:06:58;;;;;;;6.60;2.65;;;9.00;96.50;;;;;;5010502;28;20045;-73
2022/09/26 05:09:24;;;;;;;7.05;2.80;;;9.00;96.40;;;;;;5004492;28;20037;-71
2022/09/26 05:11:50;;;;;;;6.97;2.67;;;9.10;96.30;;;;;;5009281;28;20096;-72
2022/09/26 05:14:16;;;;;;;5.47;3.03;;;9.10;96.20;;;;;;5008389;28;20046;-72
2022/09/26 05:16:41;;;;;;;7.18;2.70;;;9.00;96.20;;;;;;5008028;28;20490;-72
2022/09/26 05:19:07;;;;;;;6.45;2.92;;;9.10;96.20;;;;;;5008346;28;20034;-72
2022/09/26 05:21:33;;;;;;;5.43;2.92;;;9.10;96.00;;;;;;5006243;28;20489;-72
2022/09/26 05:26:46;;;;;;;6.55;2.85;;;9.10;96.00;;;;;;5007261;28;20127;-73
2022/09/26 05:29:12;;;;;;;6.43;3.00;;;9.10;96.00;;;;;;5003750;28;20030;-72
2022/09/26 05:31:38;;;;;;;6.10;3.33;;;9.10;95.90;;;;;;5006625;28;20042;-71
2022/09/26 05:34:10;;;;;;;10.20;3.10;;;9.10;95.90;;;;;;5010224;28;20033;-72
2022/09/26 05:36:36;;;;;;;6.32;3.33;;;9.10;95.80;;;;;;5003755;28;20034;-71
2022/09/26 05:40:55;;;;;;;5.93;3.10;;;9.10;95.80;;;;;;5002938;28;20105;-72
2022/09/26 05:41:52;;;;;;;6.20;3.10;;;9.10;95.80;;;;;;5006007;28;20030;-71
2022/09/26 05:44:18;;;;;;;7.43;3.90;;;9.20;95.90;;;;;;5003889;28;20030;-72
2022/09/26 05:46:44;;;;;;;5.80;3.28;;;9.20;95.80;;;;;;5004537;28;20129;-72
2022/09/26 05:49:11;;;;;;;6.35;3.58;;;9.30;95.70;;;;;;5021967;28;20094;-72
2022/09/26 05:51:40;;;;;;;8.60;3.63;;;9.30;95.60;;;;;;5006342;28;20421;-74
2022/09/26 05:54:06;;;;;;;8.75;3.75;;;9.40;95.50;;;;;;5006817;28;20387;-73
2022/09/26 05:56:31;;;;;;;7.80;3.80;;;9.40;95.30;;;;;;4998534;28;20098;-74
2022/09/26 05:58:57;;;;;;;13.07;3.90;;;9.40;95.20;;;;;;5009953;28;20331;-73
2022/09/26 06:01:23;;;;;;;6.90;3.63;;;9.40;95.10;;;;;;5007871;28;20081;-73
2022/09/26 06:03:48;;;;;;;11.68;4.22;;;9.50;95.10;;;;;;5005235;28;20354;-73
2022/09/26 06:06:16;;;;;;;5.72;3.38;;;9.50;95.00;;;;;;5017159;28;20037;-74
2022/09/26 06:08:42;;;;;;;7.85;3.63;;;9.50;95.00;;;;;;5012376;28;20092;-73
2022/09/26 06:11:13;;;;;;;5.93;3.50;;;9.50;94.80;;;;;;5005363;28;20109;-73
2022/09/26 06:13:45;;;;;;;9.50;3.70;;;9.60;94.70;;;;;;5009346;28;20053;-72
2022/09/26 06:16:17;;;;;;;5.47;3.58;;;9.60;94.60;;;;;;4998541;28;20427;-73
2022/09/26 06:18:43;;;;;;;7.82;3.35;;;9.60;94.50;;;;;;4995498;28;20480;-72
2022/09/26 06:21:10;;;;;;;6.82;3.92;;;9.60;94.60;;;;;;5002087;28;20030;-72
2022/09/26 06:23:36;;;;;;;8.20;3.42;;;9.60;94.60;;;;;;5007661;28;20078;-73
2022/09/26 06:26:03;;;;;;;6.40;3.25;;;9.70;94.50;;;;;;5009191;28;20128;-73
2022/09/26 06:28:29;;;;;;;7.97;3.55;;;9.60;94.60;;;;;;5005482;28;20064;-72
2022/09/26 06:30:55;;;;;;;8.32;3.65;;;9.70;94.90;;;;;;5003339;28;20101;-73
2022/09/26 06:33:22;;;;;;;7.93;4.00;;;9.60;95.00;;;;;;5004149;28;20061;-71
2022/09/26 06:36:05;;;;;;;9.25;3.90;;;9.60;95.30;;;;;;5000523;28;20041;-72
2022/09/26 06:38:31;;;;;;;9.05;4.25;;;9.60;95.60;;;;;;5000600;28;20034;-72
2022/09/26 06:40:56;;;;;;;10.25;4.63;;;9.60;95.90;;;;;;5007565;28;20125;-72
2022/09/26 06:43:22;;;;;;;9.25;4.00;;;9.50;96.00;;;;;;5008181;28;20443;-72
2022/09/26 06:45:48;;;;;;;6.50;4.07;;;9.50;96.30;;;;;;5010109;28;20088;-72
2022/09/26 06:48:17;;;;;;;7.55;4.55;;;9.50;96.50;;;;;;5007928;28;20423;-72
2022/09/26 06:50:43;;;;;;;7.65;4.32;;;9.50;96.60;;;;;;5007458;28;20125;-72
2022/09/26 06:53:09;;;;;;;10.02;4.50;;;9.50;96.70;;;;;;5008512;28;20125;-72
2022/09/26 06:55:35;;;;;;;7.82;4.22;;;9.50;96.80;;;;;;5007996;28;20037;-72
2022/09/26 06:58:01;;;;;;;9.88;4.63;;;9.60;96.90;;;;;;5003416;28;20521;-72
2022/09/26 07:00:30;;;;;;;8.98;4.38;;;9.60;97.00;;;;;;5016974;28;20045;-73
2022/09/26 07:02:55;;;;;;;8.13;4.47;;;9.60;96.90;;;;;;5001307;28;20300;-71
2022/09/26 07:05:22;;;;;;;12.52;4.47;;;9.60;96.80;;;;;;5006237;28;20045;-72
2022/09/26 07:07:48;;;;;;;8.32;4.88;;;9.80;96.90;;;;;;5001902;28;20339;-73
2022/09/26 07:10:20;;;;;;;7.00;4.32;;;9.80;96.80;;;;;;4996901;28;20363;-72
2022/09/26 07:12:46;;;;;;;10.43;5.10;;;9.80;96.70;;;;;;5003164;28;20084;-73
2022/09/26 07:15:14;;;;;;;11.00;4.85;;;10.00;96.60;;;;;;5008902;28;20093;-73
2022/09/26 07:17:41;;;;;;;9.35;4.65;;;10.00;96.40;;;;;;4996114;28;20030;-74
2022/09/26 07:20:12;;;;;;;7.43;4.53;;;10.10;96.30;;;;;;5003694;28;20117;-74
2022/09/26 07:22:37;;;;;;;7.30;4.50;;;10.10;96.20;;;;;;5006676;28;20034;-72
2022/09/26 07:25:04;;;;;;;9.48;4.80;;;10.20;96.00;;;;;;5000171;28;20034;-73
2022/09/26 07:27:29;;;;;;;10.98;4.60;;;10.30;95.70;;;;;;4997205;28;20037;-73
2022/09/26 07:29:55;;;;;;;9.93;4.95;;;10.30;95.50;;;;;;5005822;28;20038;-73
2022/09/26 07:32:20;;;;;;;9.73;4.75;;;10.50;95.60;;;;;;5003471;28;20508;-74
2022/09/26 07:34:46;;;;;;;10.48;5.22;;;10.70;95.30;;;;;;5007668;28;20086;-73
2022/09/26 07:37:13;;;;;;;11.50;5.00;;;10.80;94.90;;;;;;5006972;28;20022;-73
2022/09/26 07:39:38;;;;;;;7.68;4.95;;;10.80;94.00;;;;;;4998186;28;20026;-73
2022/09/26 07:42:04;;;;;;;9.25;5.50;;;10.90;93.70;;;;;;5008078;28;20018;-73
2022/09/26 07:44:30;;;;;;;9.38;4.82;;;11.00;93.60;;;;;;5003830;28;20470;-73
2022/09/26 07:52:25;;;;;;;10.18;4.95;;;11.20;92.60;;;;;;5008676;28;20459;-73
2022/09/26 07:54:51;;;;;;;7.85;5.20;;;11.30;92.20;;;;;;5005261;28;20030;-73
2022/09/26 07:57:18;;;;;;;8.15;4.88;;;11.30;92.00;;;;;;5007008;28;20573;-73
2022/09/26 07:59:44;;;;;;;7.20;4.10;;;11.40;92.00;;;;;;5001438;28;20034;-73
2022/09/26 08:02:24;;;;;;;8.13;4.90;;;11.50;91.90;;;;;;5004170;28;20205;-75
2022/09/26 08:04:53;;;;;;;9.73;5.10;;;11.60;92.00;;;;;;4994450;28;20096;-71
2022/09/26 08:07:19;;;;;;;9.30;4.35;;;11.80;91.90;;;;;;5002564;28;20130;-73
2022/09/26 08:09:44;;;;;;;10.00;4.70;;;11.60;90.70;;;;;;4999860;28;20141;-73
2022/09/26 08:12:10;;;;;;;10.98;4.60;;;11.70;91.10;;;;;;5000831;28;20136;-72
2022/09/26 08:14:36;;;;;;;8.77;4.57;;;11.80;90.70;;;;;;4998579;28;20045;-73
2022/09/26 08:17:02;;;;;;;9.43;5.07;;;11.80;90.70;;;;;;5006948;28;20045;-73
2022/09/26 08:19:27;;;;;;;8.55;5.00;;;11.90;90.60;;;;;;5001940;28;20034;-73
2022/09/26 08:21:53;;;;;;;9.30;5.00;;;11.90;90.30;;;;;;5006739;28;20042;-73
2022/09/26 08:24:18;;;;;;;9.23;4.65;;;11.80;90.00;;;;;;5007960;28;20448;-71
2022/09/26 08:26:44;;;;;;;8.07;5.18;;;11.90;90.20;;;;;;5007775;28;20068;-73
2022/09/26 08:29:11;;;;;;;8.63;4.85;;;11.90;90.00;;;;;;5009536;28;20057;-73
2022/09/26 08:31:40;;;;;;;9.00;5.32;;;11.90;89.90;;;;;;5009899;28;20033;-73
2022/09/26 08:34:06;;;;;;;11.98;5.43;;;11.90;90.00;;;;;;5003213;28;20049;-73
2022/09/26 08:36:34;;;;;;;11.93;5.03;;;11.90;89.70;;;;;;5006624;28;20048;-72
2022/09/26 08:39:01;;;;;;;7.72;4.72;;;12.00;89.20;;;;;;5003916;28;20084;-73
2022/09/26 08:41:37;;;;;;;10.32;4.70;;;12.10;89.50;;;;;;5007887;28;20589;-73
2022/09/26 08:44:35;;;;;;;9.75;4.95;;;12.20;89.30;;;;;;5010125;28;20025;-73
2022/09/26 08:47:03;;;;;;;8.95;4.72;;;12.30;88.90;;;;;;5005522;28;20178;-73
2022/09/26 08:49:41;;;;;;;8.38;4.60;;;12.30;88.30;;;;;;5009053;28;20040;-73
2022/09/26 08:52:27;;;;;;;10.85;4.50;;;12.30;88.20;;;;;;5004245;28;20026;-73
2022/09/26 08:54:55;;;;;;;9.45;4.70;;;12.50;87.50;;;;;;5007282;28;20124;-73
2022/09/26 08:57:35;;;;;;;7.57;4.47;;;12.60;87.50;;;;;;5001848;28;20072;-73
2022/09/26 09:00:12;;;;;;;10.20;4.60;;;12.70;86.50;;;;;;5007737;28;20133;-73
2022/09/26 09:02:44;;;;;;;8.25;4.13;;;12.90;85.90;;;;;;4999388;28;20178;-72
2022/09/26 09:05:22;;;;;;;7.95;4.35;;;13.10;85.70;;;;;;5007046;28;20326;-73
2022/09/26 09:07:51;;;;;;;9.40;4.40;;;13.20;84.90;;;;;;5008104;28;20120;-74
2022/09/26 09:10:35;;;;;;;7.05;3.88;;;13.40;84.80;;;;;;5003581;28;20042;-74
2022/09/26 09:13:30;;;;;;;9.13;3.72;;;13.50;83.80;;;;;;5005820;28;20053;-74
2022/09/26 09:16:03;;;;;;;8.27;3.70;;;13.40;83.30;;;;;;5003757;28;20066;-72
2022/09/26 09:18:45;;;;;;;7.28;3.05;;;13.50;83.00;;;;;;5003372;28;20103;-72
2022/09/26 09:21:26;;;;;;;6.68;3.40;;;13.60;82.10;;;;;;5003977;28;20021;-72
2022/09/26 09:24:17;;;;;;;11.23;3.17;;;13.50;81.20;;;;;;4999148;28;20033;-73
2022/09/26 09:26:54;;;;;;;6.63;3.28;;;13.50;81.30;;;;;;5002259;28;20125;-73
2022/09/26 09:29:55;;;;;;;5.78;2.92;;;13.30;82.20;;;;;;5006811;28;20137;-72
2022/09/26 09:32:26;;;;;;;5.43;3.05;;;13.30;81.90;;;;;;5004308;28;20034;-73
2022/09/26 09:34:52;;;;;;;4.15;2.63;;;13.30;82.50;;;;;;5004424;28;20097;-73
2022/09/26 09:37:28;;;;;;;6.20;2.63;;;13.30;82.00;;;;;;5009268;28;20078;-73
2022/09/26 09:39:55;;;;;;;5.60;2.95;;;13.30;82.40;;;;;;5001237;28;20050;-74
2022/09/26 09:42:42;;;;;;;4.93;3.00;;;13.20;82.50;;;;;;4994228;28;20045;-72
2022/09/26 09:45:24;;;;;;;5.03;2.60;;;13.10;81.90;;;;;;5001374;28;20022;-73
2022/09/26 09:47:49;;;;;;;5.32;2.70;;;13.10;82.60;;;;;;5003246;28;20140;-73
2022/09/26 09:50:34;;;;;;;7.25;2.95;;;13.00;82.50;;;;;;5006395;28;20038;-74
2022/09/26 09:53:17;;;;;;;5.05;2.80;;;13.00;82.30;;;;;;5007190;28;20400;-70
2022/09/26 09:55:53;;;;;;;4.78;2.53;;;13.00;82.30;;;;;;4999906;28;20333;-70
2022/09/26 09:59:02;;;;;;;5.82;2.78;;;13.10;82.30;;;;;;5007609;28;20356;-70
2022/09/26 10:01:36;;;;;;;6.80;2.33;;;13.20;81.30;;;;;;5021524;28;20033;-74
2022/09/26 10:04:27;;;;;;;5.63;2.15;;;13.30;81.00;;;;;;5002474;28;20434;-70
2022/09/26 10:06:54;;;;;;;5.32;2.50;;;13.30;80.10;;;;;;5006242;28;20026;-71
2022/09/26 10:09:25;;;;;;;7.35;2.90;;;13.30;80.00;;;;;;5009971;28;20053;-71
2022/09/26 10:11:51;;;;;;;5.82;2.65;;;13.40;79.70;;;;;;5004460;28;20102;-70
2022/09/26 10:14:41;;;;;;;6.63;2.30;;;13.20;80.20;;;;;;4997083;28;20099;-71
2022/09/26 10:17:10;;;;;;;7.75;2.38;;;13.40;81.80;;;;;;5000989;28;20030;-71
2022/09/26 10:19:40;;;;;;;9.52;2.70;;;13.30;80.00;;;;;;5009837;28;20030;-70
2022/09/26 10:22:31;;;;;;;4.10;2.60;;;13.60;81.50;;;;;;5007929;28;20405;-71
2022/09/26 10:25:15;;;;;;;6.60;3.03;;;13.60;80.90;;;;;;4997401;28;20030;-71
2022/09/26 10:27:48;;;;;;;6.32;2.45;;;13.70;79.90;;;;;;5002301;28;20037;-71
2022/09/26 10:30:20;;;;;;;5.60;2.50;;;13.80;79.90;;;;;;5002138;28;20438;-71
2022/09/26 10:32:46;;;;;;;;;;;13.60;79.00;;;;;;4997036;28;20148;-71
2022/09/26 10:35:19;;;;;;;4.70;2.55;;;13.80;79.70;;;;;;5000058;28;20055;-71
2022/09/26 10:38:00;;;;;;;3.60;1.90;;;13.50;78.90;;;;;;5007079;28;20049;-72
2022/09/26 10:40:43;;;;;;;7.10;2.42;;;13.40;80.70;;;;;;5002788;28;20419;-70
2022/09/26 10:43:29;;;;;;;6.57;2.58;;;13.40;81.20;;;;;;4994662;28;20030;-70
2022/09/26 10:46:08;;;;;;;7.65;3.00;;;13.20;81.60;;;;;;5008853;28;20093;-71
2022/09/26 10:48:47;;;;;;;7.68;2.80;;;13.10;82.40;;;;;;5008322;28;20021;-70
2022/09/26 10:51:28;;;;;;;7.72;2.72;;;13.10;83.30;;;;;;5003118;28;20080;-70
2022/09/26 10:54:03;;;;;;;5.45;2.55;;;13.00;83.00;;;;;;5006161;28;20033;-71
2022/09/26 10:56:31;;;;;;;6.28;2.92;;;12.90;82.70;;;;;;5008304;28;20052;-70
2022/09/26 10:59:04;;;;;;;6.32;2.90;;;12.80;83.20;;;;;;5009474;28;20045;-70
2022/09/26 11:01:31;;;;;;;8.45;3.08;;;12.70;84.30;;;;;;5007557;28;20044;-70
2022/09/26 11:04:11;;;;;;;5.25;2.83;;;12.60;85.00;;;;;;5000068;28;20049;-70
2022/09/26 11:06:46;;;;;;;5.93;3.17;;;12.50;84.60;;;;;;5006338;28;20041;-70
2022/09/26 11:09:19;;;;;;;5.88;2.85;;;12.50;86.30;;;;;;5005172;28;20053;-70
2022/09/26 11:11:46;;;;;;;6.10;2.78;;;12.40;85.00;;;;;;5009094;28;20088;-73
2022/09/26 11:14:23;;;;;;;4.53;2.88;;;12.40;85.60;;;;;;5014880;28;20034;-71
2022/09/26 11:16:53;;;;;;;6.22;3.40;;;12.50;87.50;;;;;;5006409;28;20307;-71
2022/09/26 11:19:44;;;;;;;5.93;3.28;;;12.40;87.50;;;;;;4992236;28;20457;-71
2022/09/26 11:22:27;;;;;;;8.20;4.22;;;12.30;87.60;;;;;;4994451;28;20266;-69
2022/09/26 11:25:14;;;;;;;8.23;3.63;;;12.30;89.00;;;;;;4988191;28;20025;-73
2022/09/26 11:28:05;;;;;;;4.68;3.00;;;12.20;89.70;;;;;;5006273;28;20685;-72
2022/09/26 11:30:34;;;;;;;11.80;4.03;;;12.10;89.70;;;;;;4998138;28;20045;-70
2022/09/26 11:33:04;;;;;;;12.20;4.07;;;12.10;90.00;;;;;;5007554;28;20038;-70
2022/09/26 11:35:44;;;;;;;10.85;4.82;;;12.00;90.10;;;;;;5000866;28;20109;-71
2022/09/26 11:38:29;;;;;;;11.25;4.28;;;12.10;89.90;;;;;;5010612;28;20049;-70
2022/09/26 11:41:03;;;;;;;8.77;4.13;;;12.10;90.10;;;;;;4980099;28;20036;-71
2022/09/26 11:44:16;;;;;;;9.07;3.92;;;12.00;90.40;;;;;;5005989;28;20041;-70
2022/09/26 11:47:35;;;;;;;7.40;4.00;;;12.00;90.60;;;;;;4932234;28;20102;-70
2022/09/26 11:50:35;;;;;;;7.13;3.78;;;12.10;90.90;;;;;;4891875;29;20061;-70
2022/09/26 11:53:09;;;;;;;6.38;3.75;;;12.10;90.30;;;;;;4996474;28;20064;-74
2022/09/26 11:55:53;;;;;;;7.88;3.90;;;12.10;90.40;;;;;;5003987;28;20109;-70
2022/09/26 11:58:42;;;;;;;6.40;3.60;;;12.00;90.50;;;;;;5003270;28;20061;-70
2022/09/26 12:01:53;;;;;;;8.00;3.78;;;12.10;90.80;;;;;;5013122;28;20116;-70
2022/09/26 12:04:31;;;;;;;;;;;12.10;90.10;;;;;;5008575;28;20026;-70
2022/09/26 12:07:21;;;;;;;6.10;3.00;;;12.20;90.00;;;;;;5012440;28;19920;-70
2022/09/26 12:10:04;;;;;;;8.95;3.35;;;12.30;89.80;;;;;;5007391;28;20108;-70
2022/09/26 12:12:48;;;;;;;6.70;3.17;;;12.30;90.00;;;;;;5010939;28;20398;-70
2022/09/26 12:15:20;;;;;;;6.75;3.03;;;12.30;90.10;;;;;;5004655;28;20442;-70
2022/09/26 12:18:01;;;;;;;5.72;2.70;;;12.40;89.80;;;;;;5011312;28;20503;-71
2022/09/26 12:20:56;;;;;;;7.00;2.75;;;12.50;89.60;;;;;;5001940;28;20038;-70
2022/09/26 12:24:03;;;;;;;3.80;2.28;;;12.50;89.30;;;;;;4998695;28;20033;-71
2022/09/26 12:26:38;;;;;;;5.18;2.17;;;12.40;88.80;;;;;;5008247;28;20340;-70
2022/09/26 12:29:28;;;;;;;4.22;2.38;;;12.40;88.80;;;;;;5007696;28;20370;-69
2022/09/26 12:32:42;;;;;;;6.72;2.42;;;12.40;88.80;;;;;;5006566;28;20064;-70
2022/09/26 12:35:34;;;;;;;5.25;2.13;;;12.30;89.00;;;;;;5001961;28;20390;-71
2022/09/26 12:38:27;;;;;;;6.65;2.05;;;12.20;88.90;;;;;;5010328;28;20508;-69
2022/09/26 12:41:29;;;;;;;5.47;2.13;;;12.10;89.30;;;;;;4999533;28;20327;-70
2022/09/26 12:44:06;;;;;;;3.78;2.50;;;12.10;89.60;;;;;;4954982;28;20053;-71
2022/09/26 12:46:51;;;;;;;5.55;2.10;;;12.10;89.20;;;;;;4994485;28;20109;-71
2022/09/26 12:49:31;;;;;;;2.47;2.03;;;12.10;89.90;;;;;;4997712;28;20046;-69
2022/09/26 12:52:20;;;;;;;5.53;2.10;;;12.10;89.60;;;;;;5013244;28;20065;-70
2022/09/26 12:55:05;;;;;;;5.95;2.42;;;12.10;88.90;;;;;;5010937;28;20458;-69
2022/09/26 12:57:56;;;;;;;3.83;2.15;;;12.10;89.10;;;;;;5011592;28;20049;-70
2022/09/26 13:00:22;;;;;;;5.63;1.95;;;12.10;89.30;;;;;;5009466;28;20129;-69
2022/09/26 13:03:22;;;;;;;4.28;1.95;;;12.10;89.70;;;;;;5010409;28;20117;-70
2022/09/26 13:06:26;;;;;;;5.60;2.42;;;12.10;89.70;;;;;;5003575;28;20098;-70
2022/09/26 13:09:06;;;;;;;4.55;2.40;;;12.30;90.20;;;;;;5003050;28;20422;-71
2022/09/26 13:12:02;;;;;;;4.35;2.22;;;12.30;90.10;;;;;;5010736;28;20117;-69
2022/09/26 13:14:45;;;;;;;7.43;2.60;;;12.30;90.20;;;;;;5011534;28;20056;-70
2022/09/26 13:17:16;;;;;;;4.57;2.20;;;12.30;90.30;;;;;;5008019;28;20114;-70
2022/09/26 13:20:03;;;;;;;4.28;2.25;;;12.30;91.20;;;;;;5010388;28;20359;-70
2022/09/26 13:23:11;;;;;;;4.22;1.95;;;12.10;90.50;;;;;;5010129;28;20038;-70
2022/09/26 13:25:44;;;;;;;8.05;2.65;;;12.00;90.10;;;;;;5000904;28;20064;-70
2022/09/26 13:28:22;;;;;;;5.40;2.70;;;11.90;90.70;;;;;;5010430;28;20108;-70
2022/09/26 13:30:58;;;;;;;6.60;2.40;;;11.70;90.80;;;;;;5007656;28;20045;-70
2022/09/26 13:33:43;;;;;;;5.53;2.25;;;11.70;91.00;;;;;;5010194;28;20474;-70
2022/09/26 13:36:10;;;;;;;5.22;2.53;;;11.60;91.10;;;;;;5002185;28;20026;-70